createdAt,value
2023-05-04T00:00:51.498Z,2.85
2023-05-04T00:03:19.038Z,2.81
2023-05-04T00:05:46.612Z,2.93
2023-05-04T00:08:13.982Z,2.97
2023-05-04T00:10:42.729Z,2.98
2023-05-04T00:13:10.248Z,3.01
2023-05-04T00:15:37.998Z,3.10
2023-05-04T00:18:05.996Z,3.11
2023-05-04T00:20:33.694Z,3.04
2023-05-04T00:23:01.067Z,3.10
2023-05-04T00:25:28.457Z,3.05
2023-05-04T00:27:57.204Z,3.01
2023-05-04T00:30:24.852Z,2.91
2023-05-04T00:32:52.405Z,2.77
2023-05-04T00:35:19.852Z,2.82
2023-05-04T00:37:47.488Z,2.75
2023-05-04T00:40:14.905Z,2.59
2023-05-04T00:42:42.541Z,2.65
2023-05-04T00:45:11.926Z,2.60
2023-05-04T00:47:40.120Z,2.60
2023-05-04T00:50:09.016Z,2.67
2023-05-04T00:52:37.201Z,2.60
2023-05-04T00:55:05.215Z,2.39
2023-05-04T00:57:32.754Z,2.29
2023-05-04T01:00:02.955Z,2.34
2023-05-04T01:02:32.149Z,2.57
2023-05-04T01:04:59.552Z,2.60
2023-05-04T01:07:34.959Z,2.52
2023-05-04T01:10:10.530Z,2.53
2023-05-04T01:12:41.606Z,2.53
2023-05-04T01:15:10.492Z,2.58
2023-05-04T01:17:39.479Z,2.60
2023-05-04T01:20:09.412Z,2.59
2023-05-04T01:22:39.180Z,2.57
2023-05-04T01:25:08.324Z,2.52
2023-05-04T01:27:41.448Z,2.61
2023-05-04T01:30:15.398Z,2.67
2023-05-04T01:32:43.824Z,2.66
2023-05-04T01:35:13.380Z,2.73
2023-05-04T01:37:42.226Z,2.54
2023-05-04T01:40:10.691Z,2.35
2023-05-04T01:42:38.130Z,2.13
2023-05-04T01:45:06.412Z,1.91
2023-05-04T01:47:33.813Z,1.88
2023-05-04T01:50:01.322Z,2.03
2023-05-04T01:52:28.800Z,2.00
2023-05-04T01:54:57.634Z,1.89
2023-05-04T01:57:25.096Z,1.98
2023-05-04T01:59:52.480Z,1.99
2023-05-04T02:02:19.889Z,2.00
2023-05-04T02:04:47.248Z,1.96
2023-05-04T02:07:14.623Z,2.05
2023-05-04T02:09:42.174Z,2.02
2023-05-04T02:12:11.975Z,1.95
2023-05-04T02:14:39.374Z,1.85
2023-05-04T02:17:07.652Z,1.84
2023-05-04T02:19:35.095Z,1.78
2023-05-04T02:22:02.548Z,1.80
2023-05-04T02:24:29.933Z,1.92
2023-05-04T02:26:59.818Z,1.95
2023-05-04T02:29:28.646Z,1.91
2023-05-04T02:31:56.295Z,1.73
2023-05-04T02:34:23.905Z,1.69
2023-05-04T02:36:51.281Z,1.71
2023-05-04T02:39:18.668Z,1.75
2023-05-04T02:41:46.057Z,1.84
2023-05-04T02:44:13.434Z,1.90
2023-05-04T02:46:42.355Z,1.90
2023-05-04T02:49:09.996Z,1.83
2023-05-04T02:51:37.414Z,1.81
2023-05-04T02:54:04.794Z,1.85
2023-05-04T02:56:32.145Z,1.73
2023-05-04T02:58:59.793Z,1.66
2023-05-04T03:01:27.227Z,1.75
2023-05-04T03:03:55.992Z,1.68
2023-05-04T03:06:23.420Z,1.81
2023-05-04T03:08:50.775Z,1.82
2023-05-04T03:11:18.193Z,1.71
2023-05-04T03:13:45.603Z,1.67
2023-05-04T03:16:13.021Z,1.69
2023-05-04T03:21:26.830Z,1.84
2023-05-04T03:23:54.206Z,1.78
2023-05-04T03:26:22.080Z,1.77
2023-05-04T03:28:49.485Z,1.85
2023-05-04T03:31:17.065Z,1.88
2023-05-04T03:33:44.491Z,1.98
2023-05-04T03:36:11.911Z,1.94
2023-05-04T03:38:41.631Z,1.98
2023-05-04T03:41:09.069Z,2.08
2023-05-04T03:43:36.550Z,2.12
2023-05-04T03:46:04.229Z,2.22
2023-05-04T03:48:31.682Z,2.21
2023-05-04T03:50:59.404Z,2.27
2023-05-04T03:53:26.837Z,2.24
2023-05-04T03:55:55.541Z,2.10
2023-05-04T03:58:22.908Z,2.29
2023-05-04T04:00:50.277Z,2.13
2023-05-04T04:03:17.831Z,2.31
2023-05-04T04:05:45.488Z,2.22
2023-05-04T04:08:14.118Z,2.27
2023-05-04T04:10:41.808Z,2.39
2023-05-04T04:13:10.606Z,2.41
2023-05-04T04:15:38.111Z,2.47
2023-05-04T04:18:05.712Z,2.49
2023-05-04T04:20:33.818Z,2.51
2023-05-04T04:23:01.242Z,2.70
2023-05-04T04:25:28.664Z,2.70
2023-05-04T04:27:56.049Z,2.91
2023-05-04T04:30:24.768Z,3.02
2023-05-04T04:32:52.169Z,3.23
2023-05-04T04:35:19.581Z,3.41
2023-05-04T04:37:46.985Z,3.52
2023-05-04T04:40:14.658Z,3.67
2023-05-04T04:42:42.760Z,3.81
2023-05-04T04:45:11.038Z,3.82
2023-05-04T04:47:40.066Z,3.93
2023-05-04T04:50:10.381Z,3.99
2023-05-04T04:52:37.856Z,4.06
2023-05-04T04:55:07.489Z,4.22
2023-05-04T04:57:35.194Z,4.36
2023-05-04T05:00:07.702Z,4.48
2023-05-04T05:02:35.286Z,4.62
2023-05-04T05:05:04.353Z,4.76
2023-05-04T05:07:32.250Z,4.88
2023-05-04T05:09:59.693Z,5.00
2023-05-04T05:12:27.133Z,5.08
2023-05-04T05:14:54.926Z,5.31
2023-05-04T05:17:22.416Z,5.50
2023-05-04T05:19:50.014Z,5.57
2023-05-04T05:22:19.026Z,5.72
2023-05-04T05:24:46.472Z,5.83
2023-05-04T05:27:13.884Z,6.02
2023-05-04T05:29:41.876Z,6.20
2023-05-04T05:32:09.252Z,6.36
2023-05-04T05:34:38.849Z,6.55
2023-05-04T05:37:07.503Z,6.83
2023-05-04T05:39:36.859Z,7.13
2023-05-04T05:42:04.467Z,7.20
2023-05-04T05:44:31.872Z,7.60
2023-05-04T05:46:59.468Z,7.77
2023-05-04T05:49:26.848Z,8.13
2023-05-04T05:51:54.248Z,8.38
2023-05-04T05:54:22.821Z,8.68
2023-05-04T05:56:54.100Z,8.93
2023-05-04T05:59:21.532Z,9.45
2023-05-04T06:01:49.055Z,9.78
2023-05-04T06:04:16.547Z,9.77
2023-05-04T06:06:45.892Z,9.98
2023-05-04T06:09:13.898Z,10.25
2023-05-04T06:11:41.846Z,10.74
2023-05-04T06:14:10.553Z,10.53
2023-05-04T06:16:38.676Z,10.88
2023-05-04T06:19:07.332Z,11.35
2023-05-04T06:21:34.742Z,11.41
2023-05-04T06:24:02.419Z,11.82
2023-05-04T06:26:29.839Z,12.07
2023-05-04T06:28:57.259Z,12.05
2023-05-04T06:31:26.101Z,12.07
2023-05-04T06:33:53.767Z,12.25
2023-05-04T06:36:21.420Z,12.65
2023-05-04T06:38:51.273Z,12.92
2023-05-04T06:41:19.112Z,13.24
2023-05-04T06:43:46.875Z,13.27
2023-05-04T06:46:14.538Z,13.26
2023-05-04T06:48:43.398Z,13.38
2023-05-04T06:51:10.783Z,13.28
2023-05-04T06:53:38.195Z,13.71
2023-05-04T06:56:07.306Z,13.99
2023-05-04T06:58:37.745Z,14.15
2023-05-04T07:01:07.407Z,13.66
2023-05-04T07:03:34.869Z,13.82
2023-05-04T07:06:03.654Z,14.08
2023-05-04T07:08:31.290Z,14.33
2023-05-04T07:10:59.166Z,14.68
2023-05-04T07:13:26.669Z,14.86
2023-05-04T07:15:54.140Z,14.96
2023-05-04T07:18:21.548Z,14.77
2023-05-04T07:20:48.993Z,15.01
2023-05-04T07:23:17.684Z,14.62
2023-05-04T07:25:45.133Z,14.70
2023-05-04T07:28:12.514Z,15.02
2023-05-04T07:30:39.898Z,15.12
2023-05-04T07:33:07.328Z,15.45
2023-05-04T07:35:34.809Z,15.44
2023-05-04T07:38:03.611Z,15.63
2023-05-04T07:40:32.460Z,15.60
2023-05-04T07:43:00.027Z,14.99
2023-05-04T07:45:28.740Z,14.57
2023-05-04T07:47:56.187Z,14.59
2023-05-04T07:50:23.738Z,14.88
2023-05-04T07:52:52.220Z,15.00
2023-05-04T07:55:19.931Z,14.70
2023-05-04T07:57:48.814Z,15.50
2023-05-04T08:00:17.476Z,15.48
2023-05-04T08:02:44.912Z,16.21
2023-05-04T08:05:12.670Z,16.81
2023-05-04T08:07:40.232Z,16.79
2023-05-04T08:10:08.894Z,17.54
2023-05-04T08:12:36.370Z,18.08
2023-05-04T08:15:08.573Z,18.62
2023-05-04T08:17:37.915Z,19.02
2023-05-04T08:20:06.468Z,18.34
2023-05-04T08:22:34.377Z,18.52
2023-05-04T08:25:03.686Z,18.47
2023-05-04T08:27:31.263Z,18.79
2023-05-04T08:29:58.829Z,19.42
2023-05-04T08:32:27.744Z,19.71
2023-05-04T08:34:57.744Z,20.04
2023-05-04T08:37:25.210Z,20.54
2023-05-04T08:39:52.756Z,20.07
2023-05-04T08:42:28.434Z,20.76
2023-05-04T08:44:57.381Z,21.25
2023-05-04T08:47:25.484Z,21.40
2023-05-04T08:49:56.320Z,21.77
2023-05-04T08:52:25.319Z,22.03
2023-05-04T08:54:55.207Z,22.08
2023-05-04T08:57:24.665Z,22.15
2023-05-04T08:59:53.753Z,22.00
2023-05-04T09:02:22.699Z,22.41
2023-05-04T09:04:51.079Z,22.33
2023-05-04T09:07:23.510Z,23.45
2023-05-04T09:09:51.835Z,23.93
2023-05-04T09:12:19.602Z,23.39
2023-05-04T09:14:47.419Z,23.62
2023-05-04T09:17:16.453Z,23.62
2023-05-04T09:19:44.854Z,24.45
2023-05-04T09:22:16.935Z,25.04
2023-05-04T09:24:46.568Z,25.03
2023-05-04T09:27:16.308Z,25.09
2023-05-04T09:29:43.757Z,25.35
2023-05-04T09:32:14.263Z,24.62
2023-05-04T09:34:54.080Z,26.27
2023-05-04T09:37:22.202Z,26.74
2023-05-04T09:39:56.022Z,27.17
2023-05-04T09:42:24.543Z,26.18
2023-05-04T09:45:06.688Z,26.04
2023-05-04T09:47:35.752Z,26.44
2023-05-04T09:50:19.810Z,26.31
2023-05-04T09:52:48.048Z,27.18
2023-05-04T09:55:18.199Z,27.58
2023-05-04T09:57:47.237Z,27.38
2023-05-04T10:00:17.162Z,26.62
2023-05-04T10:02:47.712Z,26.70
2023-05-04T10:05:17.944Z,27.46
2023-05-04T10:07:46.654Z,27.69
2023-05-04T10:10:16.447Z,26.27
2023-05-04T10:12:46.376Z,25.75
2023-05-04T10:15:15.779Z,26.03
2023-05-04T10:17:58.888Z,26.46
2023-05-04T10:20:39.549Z,27.84
2023-05-04T10:23:29.617Z,27.67
2023-05-04T10:26:20.538Z,28.69
2023-05-04T10:29:02.167Z,28.14
2023-05-04T10:31:39.678Z,28.18
2023-05-04T10:34:08.674Z,28.47
2023-05-04T10:36:36.994Z,27.31
2023-05-04T10:39:04.611Z,26.69
2023-05-04T10:41:33.717Z,25.18
2023-05-04T10:44:06.253Z,24.91
2023-05-04T10:46:33.670Z,26.23
2023-05-04T10:49:01.047Z,25.38
2023-05-04T10:51:35.939Z,25.19
2023-05-04T10:54:18.488Z,25.14
2023-05-04T10:56:45.922Z,25.53
2023-05-04T10:59:15.825Z,25.98
2023-05-04T11:01:44.900Z,26.73
2023-05-04T11:04:24.683Z,27.26
2023-05-04T11:07:00.226Z,27.65
2023-05-04T11:09:28.962Z,26.49
2023-05-04T11:11:57.226Z,26.31
2023-05-04T11:14:30.264Z,26.26
2023-05-04T11:17:23.873Z,26.75
2023-05-04T11:19:53.958Z,25.54
2023-05-04T11:22:21.874Z,25.29
2023-05-04T11:24:49.593Z,25.82
2023-05-04T11:27:24.559Z,25.62
2023-05-04T11:29:57.549Z,26.08
2023-05-04T11:32:34.979Z,26.84
2023-05-04T11:35:02.552Z,27.16
2023-05-04T11:37:30.792Z,27.22
2023-05-04T11:39:59.067Z,27.30
2023-05-04T11:42:27.111Z,26.78
2023-05-04T11:44:56.969Z,27.54
2023-05-04T11:47:26.318Z,27.59
2023-05-04T11:49:54.020Z,29.14
2023-05-04T11:52:23.767Z,30.06
2023-05-04T11:54:56.844Z,30.72
2023-05-04T11:57:25.381Z,31.22
2023-05-04T11:59:52.863Z,30.66
2023-05-04T12:02:21.653Z,30.81
2023-05-04T12:04:49.568Z,30.98
2023-05-04T12:07:17.956Z,31.07
2023-05-04T12:09:46.584Z,31.54
2023-05-04T12:12:14.296Z,31.08
2023-05-04T12:14:49.055Z,30.42
2023-05-04T12:17:16.541Z,31.12
2023-05-04T12:19:55.538Z,32.23
2023-05-04T12:22:29.901Z,33.43
2023-05-04T12:24:58.763Z,33.87
2023-05-04T12:27:26.642Z,34.22
2023-05-04T12:29:54.811Z,35.11
2023-05-04T12:32:22.710Z,35.35
2023-05-04T12:34:50.097Z,36.23
2023-05-04T12:37:19.647Z,35.09
2023-05-04T12:39:47.122Z,33.37
2023-05-04T12:42:14.532Z,33.51
2023-05-04T12:44:42.281Z,33.12
2023-05-04T12:47:09.772Z,33.55
2023-05-04T12:49:37.202Z,32.98
2023-05-04T12:52:04.748Z,33.01
2023-05-04T12:54:33.462Z,33.07
2023-05-04T12:57:01.316Z,33.40
2023-05-04T12:59:29.037Z,33.74
2023-05-04T13:01:56.556Z,34.42
2023-05-04T13:04:23.969Z,34.43
2023-05-04T13:06:51.824Z,33.46
2023-05-04T13:09:20.261Z,32.41
2023-05-04T13:11:49.682Z,31.91
2023-05-04T13:14:17.302Z,31.34
2023-05-04T13:16:44.690Z,31.29
2023-05-04T13:19:12.256Z,30.86
2023-05-04T13:21:39.641Z,31.75
2023-05-04T13:24:08.002Z,31.90
2023-05-04T13:26:35.439Z,31.33
2023-05-04T13:29:05.325Z,32.63
2023-05-04T13:31:32.821Z,33.92
2023-05-04T13:34:00.230Z,35.22
2023-05-04T13:36:27.635Z,35.58
2023-05-04T13:38:55.845Z,36.15
2023-05-04T13:41:23.373Z,35.39
2023-05-04T13:43:50.855Z,36.47
2023-05-04T13:46:21.551Z,36.91
2023-05-04T13:48:48.949Z,35.75
2023-05-04T13:51:16.454Z,35.92
2023-05-04T13:53:43.913Z,35.18
2023-05-04T13:56:11.655Z,34.47
2023-05-04T13:58:39.038Z,34.16
2023-05-04T14:01:06.896Z,35.95
2023-05-04T14:03:35.570Z,34.09
2023-05-04T14:06:03.270Z,33.58
2023-05-04T14:08:32.062Z,35.03
2023-05-04T14:10:59.519Z,35.27
2023-05-04T14:13:27.267Z,37.43
2023-05-04T14:15:54.713Z,36.76
2023-05-04T14:18:22.473Z,36.51
2023-05-04T14:20:51.206Z,35.95
2023-05-04T14:23:18.576Z,37.60
2023-05-04T14:25:50.830Z,37.62
2023-05-04T14:28:18.370Z,36.77
2023-05-04T14:30:46.111Z,37.64
2023-05-04T14:33:13.550Z,37.43
2023-05-04T14:35:43.210Z,37.71
2023-05-04T14:38:12.012Z,38.63
2023-05-04T14:40:39.606Z,36.96
2023-05-04T14:43:07.228Z,37.27
2023-05-04T14:45:34.742Z,37.46
2023-05-04T14:48:02.969Z,36.78
2023-05-04T14:50:32.538Z,36.43
2023-05-04T14:53:00.005Z,36.74
2023-05-04T14:55:28.718Z,36.86
2023-05-04T14:57:56.210Z,36.77
2023-05-04T15:00:23.812Z,35.83
2023-05-04T15:02:51.762Z,34.20
2023-05-04T15:05:20.073Z,33.48
2023-05-04T15:07:47.559Z,33.29
2023-05-04T15:10:15.508Z,34.01
2023-05-04T15:12:44.303Z,36.15
2023-05-04T15:15:13.393Z,36.29
2023-05-04T15:17:40.830Z,36.65
2023-05-04T15:20:09.955Z,37.79
2023-05-04T15:22:37.638Z,37.28
2023-05-04T15:25:05.671Z,37.48
2023-05-04T15:27:33.073Z,37.34
2023-05-04T15:30:02.116Z,36.81
2023-05-04T15:32:29.642Z,36.35
2023-05-04T15:35:05.332Z,35.82
2023-05-04T15:37:33.798Z,34.42
2023-05-04T15:40:02.472Z,33.63
2023-05-04T15:42:30.332Z,31.66
2023-05-04T15:44:57.704Z,31.97
2023-05-04T15:47:27.001Z,32.14
2023-05-04T15:49:56.787Z,32.40
2023-05-04T15:52:24.777Z,32.20
2023-05-04T15:54:52.169Z,31.62
2023-05-04T15:57:19.852Z,31.11
2023-05-04T15:59:47.628Z,30.57
2023-05-04T16:02:15.295Z,30.68
2023-05-04T16:04:44.246Z,30.34
2023-05-04T16:07:14.384Z,30.15
2023-05-04T16:09:42.200Z,30.05
2023-05-04T16:12:10.169Z,29.89
2023-05-04T16:14:37.963Z,29.74
2023-05-04T16:17:05.546Z,29.28
2023-05-04T16:19:32.958Z,28.74
2023-05-04T16:22:01.684Z,28.93
2023-05-04T16:24:29.055Z,29.55
2023-05-04T16:26:56.529Z,30.25
2023-05-04T16:29:24.389Z,30.85
2023-05-04T16:31:51.955Z,31.07
2023-05-04T16:34:19.348Z,31.46
2023-05-04T16:36:47.229Z,31.70
2023-05-04T16:39:18.625Z,30.64
2023-05-04T16:41:48.175Z,30.88
2023-05-04T16:44:15.882Z,30.77
2023-05-04T16:46:43.451Z,29.91
2023-05-04T16:49:13.108Z,28.98
2023-05-04T16:51:42.083Z,29.89
2023-05-04T16:54:09.923Z,28.97
2023-05-04T16:56:38.692Z,28.58
2023-05-04T16:59:06.133Z,28.64
2023-05-04T17:01:34.265Z,28.06
2023-05-04T17:04:01.938Z,28.03
2023-05-04T17:06:29.518Z,27.91
2023-05-04T17:08:57.182Z,27.64
2023-05-04T17:11:24.630Z,26.52
2023-05-04T17:13:54.818Z,26.16
2023-05-04T17:16:22.296Z,26.42
2023-05-04T17:18:52.655Z,25.47
2023-05-04T17:21:20.584Z,24.33
2023-05-04T17:23:48.013Z,23.75
2023-05-04T17:26:15.978Z,23.76
2023-05-04T17:28:43.501Z,23.67
2023-05-04T17:31:13.971Z,23.74
2023-05-04T17:33:41.401Z,23.53
2023-05-04T17:36:11.707Z,23.93
2023-05-04T17:38:39.380Z,24.17
2023-05-04T17:41:06.829Z,24.37
2023-05-04T17:43:34.729Z,24.27
2023-05-04T17:46:02.955Z,23.95
2023-05-04T17:48:32.202Z,23.35
2023-05-04T17:51:00.505Z,22.52
2023-05-04T17:53:28.376Z,21.94
2023-05-04T17:55:55.780Z,21.75
2023-05-04T17:58:23.535Z,21.47
2023-05-04T18:00:53.023Z,21.10
2023-05-04T18:03:20.957Z,20.78
2023-05-04T18:05:49.988Z,20.53
2023-05-04T18:08:17.721Z,20.28
2023-05-04T18:10:45.105Z,19.97
2023-05-04T18:13:12.608Z,19.62
2023-05-04T18:15:40.234Z,19.08
2023-05-04T18:18:07.693Z,18.67
2023-05-04T18:20:35.256Z,18.22
2023-05-04T18:23:04.197Z,17.81
2023-05-04T18:25:31.617Z,17.42
2023-05-04T18:27:59.581Z,17.10
2023-05-04T18:30:29.492Z,16.98
2023-05-04T18:32:57.165Z,16.77
2023-05-04T18:35:24.936Z,16.43
2023-05-04T18:37:52.370Z,16.22
2023-05-04T18:40:21.337Z,16.24
2023-05-04T18:42:48.710Z,16.27
2023-05-04T18:45:16.667Z,16.34
2023-05-04T18:47:44.094Z,16.16
2023-05-04T18:50:11.981Z,16.21
2023-05-04T18:52:39.637Z,16.08
2023-05-04T18:55:07.930Z,15.87
2023-05-04T18:57:36.906Z,15.47
2023-05-04T19:00:06.580Z,15.09
2023-05-04T19:02:34.672Z,14.77
2023-05-04T19:05:02.115Z,14.58
2023-05-04T19:07:29.504Z,14.36
2023-05-04T19:09:56.898Z,14.21
2023-05-04T19:12:24.570Z,14.17
2023-05-04T19:14:53.373Z,14.10
2023-05-04T19:17:20.738Z,14.06
2023-05-04T19:19:48.474Z,14.01
2023-05-04T19:22:17.062Z,13.98
2023-05-04T19:24:44.806Z,14.00
2023-05-04T19:27:12.295Z,13.98
2023-05-04T19:29:39.680Z,14.02
2023-05-04T19:32:19.857Z,14.18
2023-05-04T19:34:50.629Z,14.39
2023-05-04T19:37:18.274Z,14.23
2023-05-04T19:39:45.810Z,14.08
2023-05-04T19:42:13.191Z,14.00
2023-05-04T19:44:40.909Z,13.80
2023-05-04T19:47:12.715Z,13.63
2023-05-04T19:49:40.154Z,13.50
2023-05-04T19:52:07.917Z,13.41
2023-05-04T19:54:38.059Z,13.36
2023-05-04T19:57:05.456Z,13.23
2023-05-04T19:59:33.150Z,13.09
2023-05-04T20:02:00.581Z,12.97
2023-05-04T20:04:29.359Z,12.90
2023-05-04T20:06:56.752Z,12.77
2023-05-04T20:09:24.144Z,12.64
2023-05-04T20:11:51.523Z,12.54
2023-05-04T20:14:18.927Z,12.51
2023-05-04T20:16:46.502Z,12.48
2023-05-04T20:19:14.058Z,12.49
2023-05-04T20:21:42.888Z,12.49
2023-05-04T20:24:11.917Z,12.43
2023-05-04T20:26:39.290Z,12.37
2023-05-04T20:29:07.023Z,12.38
2023-05-04T20:31:34.468Z,12.41
2023-05-04T20:34:02.064Z,12.37
2023-05-04T20:36:29.566Z,12.32
2023-05-04T20:38:58.320Z,12.29
2023-05-04T20:41:26.253Z,12.23
2023-05-04T20:43:53.781Z,12.25
2023-05-04T20:46:21.856Z,12.21
2023-05-04T20:48:49.305Z,12.11
2023-05-04T20:51:16.677Z,12.04
2023-05-04T20:53:45.112Z,11.98
2023-05-04T20:56:14.621Z,11.94
2023-05-04T20:58:42.065Z,11.91
2023-05-04T21:01:09.555Z,11.83
2023-05-04T21:03:37.113Z,11.85
2023-05-04T21:06:05.868Z,11.84
2023-05-04T21:08:33.361Z,11.78
2023-05-04T21:11:01.145Z,11.83
2023-05-04T21:13:29.960Z,11.83
2023-05-04T21:15:59.339Z,11.81
2023-05-04T21:18:27.103Z,11.77
2023-05-04T21:20:54.528Z,11.81
2023-05-04T21:23:22.139Z,11.76
2023-05-04T21:25:49.563Z,11.69
2023-05-04T21:28:16.985Z,11.63
2023-05-04T21:30:45.924Z,11.62
2023-05-04T21:33:13.367Z,11.58
2023-05-04T21:35:41.891Z,11.50
2023-05-04T21:38:09.770Z,11.45
2023-05-04T21:40:38.196Z,11.44
2023-05-04T21:43:06.010Z,11.36
2023-05-04T21:45:33.561Z,11.39
2023-05-04T21:48:03.427Z,11.38
2023-05-04T21:50:30.908Z,11.35
2023-05-04T21:52:58.321Z,11.32
2023-05-04T21:55:25.856Z,11.37
2023-05-04T21:57:53.226Z,11.40
2023-05-04T22:00:20.821Z,11.44
2023-05-04T22:02:48.511Z,11.30
2023-05-04T22:05:18.069Z,11.25
2023-05-04T22:07:45.504Z,11.33
2023-05-04T22:10:13.456Z,11.27
2023-05-04T22:12:40.879Z,11.18
2023-05-04T22:15:10.164Z,11.18
2023-05-04T22:17:37.581Z,11.20
2023-05-04T22:20:06.438Z,11.21
2023-05-04T22:22:35.458Z,11.18
2023-05-04T22:25:03.380Z,10.88
2023-05-04T22:27:30.990Z,10.89
2023-05-04T22:29:58.391Z,10.63
2023-05-04T22:32:25.913Z,10.40
2023-05-04T22:34:53.568Z,10.34
2023-05-04T22:37:22.269Z,10.24
2023-05-04T22:39:53.200Z,10.29
2023-05-04T22:42:20.656Z,10.31
2023-05-04T22:44:48.047Z,10.35
2023-05-04T22:47:16.136Z,10.34
2023-05-04T22:49:45.991Z,10.25
2023-05-04T22:52:13.505Z,10.33
2023-05-04T22:54:41.316Z,10.28
2023-05-04T22:57:14.147Z,10.23
2023-05-04T22:59:41.535Z,10.22
2023-05-04T23:02:09.672Z,10.26
2023-05-04T23:04:37.842Z,10.27
2023-05-04T23:07:05.240Z,10.22
2023-05-04T23:09:33.054Z,10.11
2023-05-04T23:12:02.220Z,10.05
2023-05-04T23:14:31.157Z,9.97
2023-05-04T23:16:58.564Z,9.74
2023-05-04T23:19:27.119Z,9.48
2023-05-04T23:21:54.822Z,9.35
2023-05-04T23:24:22.205Z,9.37
2023-05-04T23:26:49.758Z,9.29
2023-05-04T23:29:17.122Z,9.20
2023-05-04T23:31:45.989Z,9.13
2023-05-04T23:34:14.209Z,9.18
2023-05-04T23:36:41.740Z,9.14
2023-05-04T23:39:09.284Z,8.95
2023-05-04T23:41:37.242Z,9.07
2023-05-04T23:44:04.768Z,8.87
2023-05-04T23:46:32.448Z,8.82
2023-05-04T23:49:01.256Z,8.75
2023-05-04T23:51:29.056Z,8.75
2023-05-04T23:53:56.781Z,8.72
2023-05-04T23:56:24.189Z,8.49
2023-05-04T23:58:51.788Z,8.50
